Time;durP1;ratioP1;P1;durP2;ratioP2;P2;SDS_P1;SDS_P2;PMS_P1;PMS_P2;Temp;Humidity;BMP_temperature;BMP_pressure;BME280_temperature;BME280_humidity;BME280_pressure;Samples;Min_cycle;Max_cycle;Signal;HPM_P1;HPM_P2
2021/12/04 00:01:48;;;;;;;;;;;8.20;93.60;;;;;;5135993;27;19951;-73
2021/12/04 00:04:18;;;;;;;;;;;8.20;93.60;;;;;;5135197;27;20386;-73
2021/12/04 00:06:44;;;;;;;;;;;8.20;93.60;;;;;;5136265;27;19915;-73
2021/12/04 00:09:12;;;;;;;;;;;8.20;93.60;;;;;;5135835;27;19907;-73
2021/12/04 00:11:40;;;;;;;;;;;8.30;93.60;;;;;;5135299;27;19914;-73
2021/12/04 00:14:06;;;;;;;;;;;8.30;93.70;;;;;;5135888;27;20394;-73
2021/12/04 00:16:32;;;;;;;;;;;8.30;93.40;;;;;;5136243;27;20015;-73
2021/12/04 00:18:57;;;;;;;;;;;8.30;93.40;;;;;;5135034;27;19918;-73
2021/12/04 00:21:23;;;;;;;;;;;8.30;93.30;;;;;;5135778;27;19910;-74
2021/12/04 00:23:48;;;;;;;;;;;8.30;93.30;;;;;;5135834;27;19964;-73
2021/12/04 00:26:14;;;;;;;;;;;8.30;93.30;;;;;;5134901;27;19911;-73
2021/12/04 00:28:40;;;;;;;;;;;8.30;93.30;;;;;;5135039;27;20384;-73
2021/12/04 00:31:08;;;;;;;;;;;8.30;93.30;;;;;;5135724;27;19907;-73
2021/12/04 00:33:36;;;;;;;;;;;8.30;93.30;;;;;;5134974;27;20340;-73
2021/12/04 00:36:12;;;;;;;;;;;8.30;93.30;;;;;;5135510;27;19907;-73
2021/12/04 00:49:42;;;;;;;;;;;8.20;93.30;;;;;;5123925;27;20303;-73
2021/12/04 00:52:07;;;;;;;;;;;8.20;93.40;;;;;;5135251;27;19907;-73
2021/12/04 00:54:33;;;;;;;;;;;8.20;93.50;;;;;;5134814;27;20286;-73
2021/12/04 00:56:58;;;;;;;;;;;8.20;93.40;;;;;;5134840;27;19908;-73
2021/12/04 00:59:24;;;;;;;;;;;8.20;93.40;;;;;;5134941;27;20002;-73
2021/12/04 01:01:50;;;;;;;;;;;8.20;93.50;;;;;;5118574;27;19915;-73
2021/12/04 01:04:16;;;;;;;;;;;8.10;93.50;;;;;;5134496;27;19907;-74
2021/12/04 01:06:42;;;;;;;;;;;8.10;93.50;;;;;;5130842;27;20283;-74
2021/12/04 01:09:08;;;;;;;;;;;8.20;93.50;;;;;;5125196;27;19907;-73
2021/12/04 01:11:34;;;;;;;;;;;8.20;93.50;;;;;;5134594;27;19910;-73
2021/12/04 01:14:00;;;;;;;;;;;8.20;93.50;;;;;;5134808;27;19915;-73
2021/12/04 01:16:26;;;;;;;;;;;8.20;93.50;;;;;;5133642;27;19907;-73
2021/12/04 01:18:51;;;;;;;;;;;8.20;93.40;;;;;;5134429;27;19911;-74
2021/12/04 01:21:17;;;;;;;;;;;8.20;93.40;;;;;;5134302;27;19907;-74
2021/12/04 01:23:42;;;;;;;;;;;8.20;93.40;;;;;;5128188;27;19907;-73
2021/12/04 01:26:08;;;;;;;;;;;8.20;93.40;;;;;;5134108;27;19946;-74
2021/12/04 01:28:34;;;;;;;;;;;8.20;93.30;;;;;;5116310;27;19993;-73
2021/12/04 01:30:59;;;;;;;;;;;8.30;93.30;;;;;;5121288;27;19936;-74
2021/12/04 01:33:25;;;;;;;;;;;8.30;93.30;;;;;;5130240;27;19907;-74
2021/12/04 01:35:51;;;;;;;;;;;8.30;93.30;;;;;;5124868;27;19911;-74
2021/12/04 01:38:16;;;;;;;;;;;8.30;93.30;;;;;;5132226;27;19919;-74
2021/12/04 01:40:43;;;;;;;;;;;8.30;93.20;;;;;;5130576;27;19911;-73
2021/12/04 01:43:09;;;;;;;;;;;8.30;93.10;;;;;;5125803;27;20001;-74
2021/12/04 01:45:35;;;;;;;;;;;8.30;93.20;;;;;;5131914;27;20424;-74
2021/12/04 01:48:01;;;;;;;;;;;8.30;93.10;;;;;;5133141;27;19955;-74
2021/12/04 01:50:27;;;;;;;;;;;8.30;93.10;;;;;;5126808;27;20282;-74
2021/12/04 01:52:55;;;;;;;;;;;8.30;93.10;;;;;;5134049;27;20429;-74
2021/12/04 01:55:25;;;;;;;;;;;8.30;93.10;;;;;;5133828;27;19911;-73
2021/12/04 01:57:50;;;;;;;;;;;8.30;93.20;;;;;;5133363;27;19907;-73
2021/12/04 02:00:16;;;;;;;;;;;8.30;93.20;;;;;;5132443;27;19940;-73
2021/12/04 02:02:42;;;;;;;;;;;8.40;93.20;;;;;;5118747;27;19911;-73
2021/12/04 02:05:07;;;;;;;;;;;8.50;93.20;;;;;;5133479;27;20401;-73
2021/12/04 02:07:35;;;;;;;;;;;8.50;93.00;;;;;;5127007;27;20002;-73
2021/12/04 02:10:05;;;;;;;;;;;8.60;92.90;;;;;;5122190;27;19915;-73
2021/12/04 02:12:31;;;;;;;;;;;8.60;92.80;;;;;;5131934;27;20034;-73
2021/12/04 02:14:56;;;;;;;;;;;8.60;92.70;;;;;;5133760;27;19911;-73
2021/12/04 02:17:22;;;;;;;;;;;8.60;92.60;;;;;;5133916;27;19907;-74
2021/12/04 02:19:47;;;;;;;;;;;8.60;92.60;;;;;;5133281;28;19994;-73
2021/12/04 02:22:13;;;;;;;;;;;8.60;92.60;;;;;;5133804;28;20269;-74
2021/12/04 02:24:39;;;;;;;;;;;8.60;92.60;;;;;;5132883;28;19940;-74
2021/12/04 02:27:05;;;;;;;;;;;8.60;92.60;;;;;;5133814;28;20006;-74
2021/12/04 02:29:30;;;;;;;;;;;8.60;92.60;;;;;;5133400;28;19950;-74
2021/12/04 02:31:56;;;;;;;;;;;8.60;92.60;;;;;;5133262;28;20683;-73
2021/12/04 02:34:23;;;;;;;;;;;8.60;92.60;;;;;;5133626;28;19908;-73
2021/12/04 02:36:49;;;;;;;;;;;8.60;92.60;;;;;;5121002;28;19914;-73
2021/12/04 02:39:27;;;;;;;;;;;8.60;92.50;;;;;;5132896;28;20275;-75
2021/12/04 02:41:52;;;;;;;;;;;8.60;92.50;;;;;;5133283;28;19907;-74
2021/12/04 02:44:18;;;;;;;;;;;8.60;92.40;;;;;;5133467;28;19934;-74
2021/12/04 02:46:44;;;;;;;;;;;8.60;92.40;;;;;;5132402;28;19922;-74
2021/12/04 02:49:12;;;;;;;;;;;8.60;92.40;;;;;;5133603;28;19932;-75
2021/12/04 02:51:38;;;;;;;;;;;8.60;92.50;;;;;;5134835;27;20270;-74
2021/12/04 02:54:05;;;;;;;;;;;8.60;92.50;;;;;;5136567;27;19907;-75
2021/12/04 02:56:30;;;;;;;;;;;8.60;92.50;;;;;;5137619;27;20006;-73
2021/12/04 02:59:01;;;;;;;;;;;8.60;92.40;;;;;;5137053;27;19947;-74
2021/12/04 03:01:27;;;;;;;;;;;8.50;92.50;;;;;;5121235;27;20359;-74
2021/12/04 03:04:03;;;;;;;;;;;8.50;92.50;;;;;;5136705;27;19914;-73
2021/12/04 03:06:29;;;;;;;;;;;8.50;92.40;;;;;;5137069;27;20022;-74
2021/12/04 03:08:54;;;;;;;;;;;8.50;92.70;;;;;;5135938;27;19950;-73
2021/12/04 03:11:20;;;;;;;;;;;8.50;92.50;;;;;;5136824;27;19953;-73
2021/12/04 03:13:45;;;;;;;;;;;8.50;92.80;;;;;;5137197;27;19907;-73
2021/12/04 03:16:11;;;;;;;;;;;8.50;92.60;;;;;;5136309;27;19907;-73
2021/12/04 03:18:36;;;;;;;;;;;8.40;92.60;;;;;;5137100;27;19946;-74
2021/12/04 03:21:04;;;;;;;;;;;8.40;92.60;;;;;;5136013;27;19918;-74
2021/12/04 03:23:33;;;;;;;;;;;8.50;92.60;;;;;;5137009;27;19915;-73
2021/12/04 03:26:00;;;;;;;;;;;8.50;92.60;;;;;;5136257;27;19998;-73
2021/12/04 03:28:27;;;;;;;;;;;8.50;92.60;;;;;;5136232;27;19922;-73
2021/12/04 03:31:15;;;;;;;;;;;8.50;92.60;;;;;;5136111;27;19907;-73
2021/12/04 03:41:52;;;;;;;;;;;8.40;92.50;;;;;;5129617;27;19907;-73
2021/12/04 03:44:18;;;;;;;;;;;8.40;92.50;;;;;;5135637;27;19922;-73
2021/12/04 03:46:46;;;;;;;;;;;8.40;92.60;;;;;;5136039;27;20377;-73
2021/12/04 03:49:12;;;;;;;;;;;8.40;92.60;;;;;;5135591;27;20276;-74
2021/12/04 03:51:37;;;;;;;;;;;8.30;92.60;;;;;;5134575;27;19933;-73
2021/12/04 03:54:03;;;;;;;;;;;8.30;93.00;;;;;;5125039;27;19915;-74
2021/12/04 03:56:29;;;;;;;;;;;8.30;92.70;;;;;;5130607;27;19907;-74
2021/12/04 03:58:55;;;;;;;;;;;8.30;92.80;;;;;;5136096;27;19907;-74
2021/12/04 04:01:20;;;;;;;;;;;8.20;92.80;;;;;;5131866;27;19991;-74
2021/12/04 04:03:46;;;;;;;;;;;8.30;93.20;;;;;;5134110;27;19912;-73
2021/12/04 04:06:12;;;;;;;;;;;8.20;92.90;;;;;;5135752;27;20285;-74
2021/12/04 04:08:38;;;;;;;;;;;8.20;92.90;;;;;;5130661;27;19907;-73
2021/12/04 04:11:03;;;;;;;;;;;8.20;92.90;;;;;;5134149;27;19907;-73
2021/12/04 04:13:29;;;;;;;;;;;8.20;93.00;;;;;;5127631;27;19911;-73
2021/12/04 04:15:54;;;;;;;;;;;8.20;93.00;;;;;;5134612;27;20381;-73
2021/12/04 04:18:20;;;;;;;;;;;8.20;93.00;;;;;;5128236;27;19908;-73
2021/12/04 04:20:46;;;;;;;;;;;8.20;93.00;;;;;;5127531;27;19915;-73
2021/12/04 04:23:11;;;;;;;;;;;8.30;93.00;;;;;;5129211;27;20051;-74
2021/12/04 04:25:37;;;;;;;;;;;8.30;93.00;;;;;;5129063;27;20282;-73
2021/12/04 04:28:02;;;;;;;;;;;8.30;93.00;;;;;;5134642;27;19958;-73
2021/12/04 04:30:28;;;;;;;;;;;8.30;92.90;;;;;;5133745;27;19908;-73
2021/12/04 04:32:54;;;;;;;;;;;8.30;92.90;;;;;;5134144;27;19943;-73
2021/12/04 04:35:23;;;;;;;;;;;8.30;92.80;;;;;;5132014;27;19911;-73
2021/12/04 04:38:07;;;;;;;;;;;8.30;92.80;;;;;;5127969;27;19907;-73
2021/12/04 05:13:28;;;;;;;;;;;8.20;92.90;;;;;;5134230;27;20070;-74
2021/12/04 05:20:54;;;;;;;;;;;8.20;92.90;;;;;;5133889;27;19930;-72
2021/12/04 05:23:20;;;;;;;;;;;8.20;92.90;;;;;;5134753;27;19911;-72
2021/12/04 05:25:46;;;;;;;;;;;8.20;92.80;;;;;;5134187;27;19921;-72
2021/12/04 05:28:11;;;;;;;;;;;8.20;92.80;;;;;;5133780;27;19923;-72
2021/12/04 05:30:37;;;;;;;;;;;8.30;92.90;;;;;;5134253;27;19982;-73
2021/12/04 05:33:04;;;;;;;;;;;8.30;92.80;;;;;;5134202;27;20362;-73
2021/12/04 05:35:29;;;;;;;;;;;8.30;92.80;;;;;;5132321;27;21572;-72
2021/12/04 05:37:55;;;;;;;;;;;8.30;92.80;;;;;;5133368;27;19907;-73
2021/12/04 05:40:21;;;;;;;;;;;8.30;92.70;;;;;;5133829;27;19907;-73
2021/12/04 05:42:47;;;;;;;;;;;8.30;92.70;;;;;;5131812;27;19907;-72
2021/12/04 05:45:22;;;;;;;;;;;8.30;92.70;;;;;;5133179;27;19965;-73
2021/12/04 05:56:01;;;;;;;;;;;8.40;92.60;;;;;;5132636;27;19907;-73
2021/12/04 05:58:28;;;;;;;;;;;8.40;92.50;;;;;;5133498;27;20438;-72
2021/12/04 06:00:55;;;;;;;;;;;8.40;92.50;;;;;;5118588;27;19908;-72
2021/12/04 06:03:20;;;;;;;;;;;8.40;92.50;;;;;;5127470;27;19907;-73
2021/12/04 06:05:46;;;;;;;;;;;8.40;92.50;;;;;;5134069;27;19949;-72
2021/12/04 06:08:12;;;;;;;;;;;8.50;92.50;;;;;;5133556;27;19972;-72
2021/12/04 06:10:38;;;;;;;;;;;8.50;92.40;;;;;;5133648;27;19907;-72
2021/12/04 06:13:04;;;;;;;;;;;8.50;92.40;;;;;;5133657;27;19945;-73
2021/12/04 06:15:29;;;;;;;;;;;8.50;92.30;;;;;;5134027;27;19954;-73
2021/12/04 06:17:55;;;;;;;;;;;8.50;92.30;;;;;;5132791;27;20321;-73
2021/12/04 06:23:05;;;;;;;;;;;8.60;92.20;;;;;;5133486;28;19942;-73
2021/12/04 06:25:31;;;;;;;;;;;8.60;92.10;;;;;;5133070;27;19950;-73
2021/12/04 06:27:57;;;;;;;;;;;8.60;92.00;;;;;;5137413;27;19918;-72
2021/12/04 06:30:25;;;;;;;;;;;8.60;92.00;;;;;;5138216;27;19908;-72
2021/12/04 06:32:51;;;;;;;;;;;8.70;92.00;;;;;;5136236;27;19937;-73
2021/12/04 06:35:18;;;;;;;;;;;8.70;92.00;;;;;;5136798;27;20479;-73
2021/12/04 06:37:43;;;;;;;;;;;8.70;92.00;;;;;;5137432;27;20274;-74
2021/12/04 06:40:11;;;;;;;;;;;8.70;91.90;;;;;;5136350;27;19907;-74
2021/12/04 06:42:37;;;;;;;;;;;8.70;91.90;;;;;;5136349;27;19907;-73
2021/12/04 06:45:04;;;;;;;;;;;8.70;91.80;;;;;;5136127;27;20051;-74
2021/12/04 06:47:30;;;;;;;;;;;8.70;91.80;;;;;;5136986;27;20434;-75
2021/12/04 06:50:02;;;;;;;;;;;8.80;91.80;;;;;;5136827;27;19907;-72
2021/12/04 06:52:28;;;;;;;;;;;8.70;91.80;;;;;;5136345;27;20022;-72
2021/12/04 06:54:56;;;;;;;;;;;8.80;91.80;;;;;;5137086;27;20312;-72
2021/12/04 06:57:22;;;;;;;;;;;8.80;91.80;;;;;;5136392;27;20009;-71
2021/12/04 06:59:50;;;;;;;;;;;8.80;91.80;;;;;;5128697;27;20468;-72
2021/12/04 07:02:15;;;;;;;;;;;8.80;91.70;;;;;;5135481;27;19996;-72
2021/12/04 07:04:41;;;;;;;;;;;8.90;91.70;;;;;;5135239;27;20066;-71
2021/12/04 07:07:08;;;;;;;;;;;8.90;91.70;;;;;;5135054;27;20434;-71
2021/12/04 07:09:34;;;;;;;;;;;8.90;91.70;;;;;;5136032;27;20351;-71
2021/12/04 07:12:00;;;;;;;;;;;8.90;91.70;;;;;;5136445;27;19922;-71
2021/12/04 07:14:26;;;;;;;;;;;9.00;91.60;;;;;;5135340;27;19908;-71
2021/12/04 07:16:51;;;;;;;;;;;9.00;91.50;;;;;;5136184;27;19907;-71
2021/12/04 07:19:17;;;;;;;;;;;9.00;91.50;;;;;;5136245;27;19925;-72
2021/12/04 07:21:45;;;;;;;;;;;9.00;91.50;;;;;;5135295;27;20342;-71
2021/12/04 07:24:10;;;;;;;;;;;9.00;91.40;;;;;;5136276;27;19918;-73
2021/12/04 07:26:36;;;;;;;;;;;9.10;91.40;;;;;;5136228;27;19908;-71
2021/12/04 07:29:02;;;;;;;;;;;9.00;91.40;;;;;;5134040;27;20001;-72
2021/12/04 07:31:29;;;;;;;;;;;9.00;91.50;;;;;;5132852;27;19907;-71
2021/12/04 07:33:56;;;;;;;;;;;9.10;91.50;;;;;;5132322;27;19911;-71
2021/12/04 07:36:22;;;;;;;;;;;9.10;91.40;;;;;;5131079;27;19911;-71
2021/12/04 07:38:48;;;;;;;;;;;9.10;91.40;;;;;;5132507;27;19967;-71
2021/12/04 07:41:13;;;;;;;;;;;9.20;91.40;;;;;;5131717;27;19911;-72
2021/12/04 07:43:39;;;;;;;;;;;9.20;91.40;;;;;;5133075;27;20359;-72
2021/12/04 07:46:04;;;;;;;;;;;9.10;91.30;;;;;;5132478;27;19922;-72
2021/12/04 07:48:30;;;;;;;;;;;9.20;91.40;;;;;;5133685;27;19977;-72
2021/12/04 07:50:56;;;;;;;;;;;9.20;91.40;;;;;;5134601;27;20437;-72
2021/12/04 07:53:22;;;;;;;;;;;9.20;91.30;;;;;;5134669;27;19932;-72
2021/12/04 07:55:47;;;;;;;;;;;9.20;91.30;;;;;;5133799;27;19998;-73
2021/12/04 07:58:16;;;;;;;;;;;9.20;91.30;;;;;;5134462;27;19998;-73
2021/12/04 08:00:41;;;;;;;;;;;9.20;91.30;;;;;;5134447;27;19907;-73
2021/12/04 08:03:07;;;;;;;;;;;9.20;91.30;;;;;;5133911;27;20389;-72
2021/12/04 08:05:32;;;;;;;;;;;9.20;91.20;;;;;;5134420;27;19952;-72
2021/12/04 08:08:00;;;;;;;;;;;9.30;91.30;;;;;;5134210;27;20013;-72
2021/12/04 08:10:26;;;;;;;;;;;9.30;91.30;;;;;;5131113;27;19965;-73
2021/12/04 08:12:51;;;;;;;;;;;9.30;91.20;;;;;;5134141;27;19964;-74
2021/12/04 08:15:17;;;;;;;;;;;9.30;91.10;;;;;;5133959;27;19907;-71
2021/12/04 08:17:43;;;;;;;;;;;9.30;91.10;;;;;;5133483;27;19911;-72
2021/12/04 08:20:10;;;;;;;;;;;9.30;91.20;;;;;;5134209;27;19914;-72
2021/12/04 08:22:36;;;;;;;;;;;9.30;91.10;;;;;;5134108;27;19934;-72
2021/12/04 08:25:02;;;;;;;;;;;9.30;91.10;;;;;;5133034;27;20366;-72
2021/12/04 08:27:28;;;;;;;;;;;9.30;91.10;;;;;;5133756;27;19916;-72
2021/12/04 08:29:53;;;;;;;;;;;9.30;91.10;;;;;;5131525;27;20264;-73
2021/12/04 08:32:23;;;;;;;;;;;9.30;91.10;;;;;;5133967;27;19907;-73
2021/12/04 08:34:49;;;;;;;;;;;9.30;91.10;;;;;;5134515;27;20374;-73
2021/12/04 08:37:14;;;;;;;;;;;9.30;91.10;;;;;;5134826;27;19911;-73
2021/12/04 08:39:40;;;;;;;;;;;9.30;91.10;;;;;;5133925;27;19964;-72
2021/12/04 08:42:06;;;;;;;;;;;9.30;91.10;;;;;;5134079;27;19907;-73
2021/12/04 08:44:33;;;;;;;;;;;9.30;91.10;;;;;;5132448;27;19923;-72
2021/12/04 08:46:59;;;;;;;;;;;9.30;91.00;;;;;;5131671;27;19927;-72
2021/12/04 08:49:25;;;;;;;;;;;9.30;91.00;;;;;;5134239;27;19952;-72
2021/12/04 08:51:51;;;;;;;;;;;9.30;91.00;;;;;;5133899;27;20363;-71
2021/12/04 08:54:16;;;;;;;;;;;9.20;90.90;;;;;;5131874;27;19960;-72
2021/12/04 08:56:42;;;;;;;;;;;9.20;90.90;;;;;;5134675;27;20379;-72
2021/12/04 08:59:08;;;;;;;;;;;9.20;90.90;;;;;;5132389;27;20302;-72
2021/12/04 09:01:35;;;;;;;;;;;9.20;90.90;;;;;;5133998;27;19946;-72
2021/12/04 09:04:06;;;;;;;;;;;9.20;90.90;;;;;;5134584;27;19914;-72
2021/12/04 09:06:32;;;;;;;;;;;9.30;90.90;;;;;;5132060;27;19916;-72
2021/12/04 09:08:58;;;;;;;;;;;9.20;90.90;;;;;;5133373;27;19979;-72
2021/12/04 09:11:26;;;;;;;;;;;9.30;90.90;;;;;;5133632;27;20363;-72
2021/12/04 09:13:53;;;;;;;;;;;9.20;90.90;;;;;;5133144;27;19922;-72
2021/12/04 09:16:19;;;;;;;;;;;9.30;91.20;;;;;;5134298;27;19907;-72
2021/12/04 09:18:45;;;;;;;;;;;9.30;90.90;;;;;;5133500;27;19951;-72
2021/12/04 09:21:11;;;;;;;;;;;9.30;90.90;;;;;;5132604;27;19992;-72
2021/12/04 09:23:40;;;;;;;;;;;9.30;90.90;;;;;;5132379;27;19907;-70
2021/12/04 09:26:08;;;;;;;;;;;9.30;90.90;;;;;;5132817;27;19914;-69
2021/12/04 10:01:18;;;;;;;;;;;9.30;90.80;;;;;;5132106;27;19911;-70
2021/12/04 10:04:02;;;;;;;;;;;9.30;90.80;;;;;;5133096;27;20005;-70
2021/12/04 10:12:33;;;;;;;;;;;9.30;90.80;;;;;;5134020;27;19911;-75
2021/12/04 10:20:29;;;;;;;;;;;9.40;90.80;;;;;;5133547;27;19990;-76
2021/12/04 10:23:31;;;;;;;;;;;9.40;90.80;;;;;;5133369;28;19921;-74
2021/12/04 10:34:03;;;;;;;;;;;9.40;90.80;;;;;;5127626;28;19918;-70
2021/12/04 10:36:31;;;;;;;;;;;9.40;90.80;;;;;;5133223;28;19929;-71
2021/12/04 10:38:57;;;;;;;;;;;9.40;90.80;;;;;;5132280;28;19960;-71
2021/12/04 10:41:33;;;;;;;;;;;9.40;90.80;;;;;;5126314;28;19914;-70
2021/12/04 10:44:18;;;;;;;;;;;9.50;90.80;;;;;;5133059;28;19907;-71
2021/12/04 10:47:07;;;;;;;;;;;9.40;90.80;;;;;;5133013;28;19919;-70
2021/12/04 10:49:42;;;;;;;;;;;9.50;90.80;;;;;;5120342;28;19907;-73
2021/12/04 10:52:17;;;;;;;;;;;9.50;90.80;;;;;;5131575;28;19934;-71
2021/12/04 10:54:43;;;;;;;;;;;9.40;90.70;;;;;;5132945;28;19907;-72
2021/12/04 11:00:11;;;;;;;;;;;9.40;90.70;;;;;;5123687;28;19961;-71
2021/12/04 11:02:39;;;;;;;;;;;9.50;90.80;;;;;;5127575;28;19932;-72
2021/12/04 11:06:19;;;;;;;;;;;9.50;90.70;;;;;;5125152;28;19907;-72
2021/12/04 11:21:58;;;;;;;;;;;9.60;90.60;;;;;;5134513;27;19907;-73
2021/12/04 11:38:03;;;;;;;;;;;9.60;90.60;;;;;;5136051;27;19915;-75
2021/12/04 11:40:51;;;;;;;;;;;9.60;90.60;;;;;;5134474;27;19939;-76
2021/12/04 11:43:18;;;;;;;;;;;9.70;90.70;;;;;;5134856;27;19914;-75
2021/12/04 11:45:50;;;;;;;;;;;9.60;90.60;;;;;;5134543;27;19915;-75
2021/12/04 11:48:26;;;;;;;;;;;9.60;90.60;;;;;;5132798;27;19915;-74
2021/12/04 11:50:52;;;;;;;;;;;9.70;90.60;;;;;;5134902;27;19998;-73
2021/12/04 11:53:19;;;;;;;;;;;9.70;90.60;;;;;;5134700;27;19907;-73
2021/12/04 11:55:46;;;;;;;;;;;9.70;90.60;;;;;;5134135;27;19954;-73
2021/12/04 11:58:26;;;;;;;;;;;9.70;90.70;;;;;;5134321;27;19907;-76
2021/12/04 12:00:54;;;;;;;;;;;9.70;90.60;;;;;;5134570;27;20362;-71
2021/12/04 12:03:24;;;;;;;;;;;9.70;90.60;;;;;;5127009;27;20316;-75
2021/12/04 12:05:50;;;;;;;;;;;9.70;90.70;;;;;;5129769;27;20439;-76
2021/12/04 12:08:51;;;;;;;;;;;9.80;90.70;;;;;;5134212;27;19911;-75
2021/12/04 12:11:22;;;;;;;;;;;9.70;90.70;;;;;;5030802;28;19909;-76
2021/12/04 12:13:55;;;;;;;;;;;9.70;90.70;;;;;;5115777;27;20006;-74
2021/12/04 12:16:26;;;;;;;;;;;9.80;90.70;;;;;;5133310;27;20056;-75
2021/12/04 12:18:57;;;;;;;;;;;9.70;90.70;;;;;;5133267;27;19911;-75
2021/12/04 12:21:33;;;;;;;;;;;9.70;90.70;;;;;;5132842;27;19932;-75
2021/12/04 12:27:49;;;;;;;;;;;9.70;90.80;;;;;;5133978;27;19932;-75
2021/12/04 12:32:48;;;;;;;;;;;9.70;90.80;;;;;;5132820;27;19918;-75
2021/12/04 12:37:48;;;;;;;;;;;9.70;90.80;;;;;;5133134;27;19907;-72
2021/12/04 12:40:16;;;;;;;;;;;9.70;90.80;;;;;;5133651;27;19915;-75
2021/12/04 12:42:42;;;;;;;;;;;9.70;90.80;;;;;;5134342;27;19907;-74
2021/12/04 12:45:18;;;;;;;;;;;9.70;90.80;;;;;;5133981;27;19926;-73
2021/12/04 12:48:10;;;;;;;;;;;9.70;90.80;;;;;;5133795;27;19915;-78
2021/12/04 12:50:38;;;;;;;;;;;9.70;90.80;;;;;;5129229;27;19911;-78
2021/12/04 12:53:10;;;;;;;;;;;9.70;90.80;;;;;;5134456;27;20044;-78
2021/12/04 12:55:36;;;;;;;;;;;9.70;90.80;;;;;;5125152;27;19993;-77
2021/12/04 12:58:12;;;;;;;;;;;9.80;90.80;;;;;;5130595;27;19911;-78
2021/12/04 13:11:44;;;;;;;;;;;9.80;90.80;;;;;;5133186;27;20319;-78
2021/12/04 13:14:28;;;;;;;;;;;9.80;90.80;;;;;;5130840;27;19916;-76
2021/12/04 13:17:09;;;;;;;;;;;9.80;90.90;;;;;;5128982;27;19907;-72
2021/12/04 13:19:37;;;;;;;;;;;9.80;90.80;;;;;;5129863;27;19907;-77
2021/12/04 13:22:08;;;;;;;;;;;9.80;90.90;;;;;;5123916;27;19918;-79
2021/12/04 13:24:36;;;;;;;;;;;9.80;90.90;;;;;;5131729;27;19907;-80
2021/12/04 13:29:38;;;;;;;;;;;9.80;90.90;;;;;;5126399;27;20359;-77
2021/12/04 13:32:04;;;;;;;;;;;9.80;90.90;;;;;;5133466;27;20389;-77
2021/12/04 13:34:31;;;;;;;;;;;9.80;90.90;;;;;;5123296;27;19922;-76
2021/12/04 13:36:58;;;;;;;;;;;9.80;90.90;;;;;;5126617;27;20335;-76
2021/12/04 13:39:24;;;;;;;;;;;9.90;90.90;;;;;;5133387;27;19907;-76
2021/12/04 13:41:51;;;;;;;;;;;9.90;90.90;;;;;;5127320;27;20010;-77
2021/12/04 13:44:18;;;;;;;;;;;9.90;90.90;;;;;;5123486;27;19941;-76
2021/12/04 13:46:45;;;;;;;;;;;9.90;90.90;;;;;;5128427;27;19907;-74
2021/12/04 13:49:12;;;;;;;;;;;10.00;90.90;;;;;;5120924;27;19907;-77
2021/12/04 13:51:38;;;;;;;;;;;10.00;90.90;;;;;;5125438;27;19911;-77
2021/12/04 13:54:04;;;;;;;;;;;10.00;90.90;;;;;;5127610;27;20024;-76
2021/12/04 13:56:30;;;;;;;;;;;10.00;90.90;;;;;;5131425;27;20162;-76
2021/12/04 13:58:58;;;;;;;;;;;10.00;90.80;;;;;;5129455;27;19956;-77
2021/12/04 14:01:24;;;;;;;;;;;10.00;90.80;;;;;;5129765;27;19907;-77
2021/12/04 14:03:54;;;;;;;;;;;10.00;90.80;;;;;;5131652;27;19908;-78
2021/12/04 14:06:19;;;;;;;;;;;10.00;90.80;;;;;;5131348;27;19960;-78
2021/12/04 14:08:55;;;;;;;;;;;10.00;90.80;;;;;;5130593;27;19915;-78
2021/12/04 14:11:31;;;;;;;;;;;10.00;90.80;;;;;;5130975;27;19907;-78
2021/12/04 14:13:57;;;;;;;;;;;10.00;90.80;;;;;;5127911;27;20285;-78
2021/12/04 14:16:23;;;;;;;;;;;10.00;90.80;;;;;;5128171;27;20002;-76
2021/12/04 14:18:49;;;;;;;;;;;10.10;90.80;;;;;;5128999;27;19919;-77
2021/12/04 14:21:15;;;;;;;;;;;10.10;90.80;;;;;;5128824;27;19915;-82
2021/12/04 14:23:40;;;;;;;;;;;10.00;90.80;;;;;;5128411;27;19911;-77
2021/12/04 14:26:07;;;;;;;;;;;10.10;90.80;;;;;;5128809;28;19911;-77
2021/12/04 14:28:35;;;;;;;;;;;10.00;90.80;;;;;;5127788;28;19915;-77
2021/12/04 14:31:00;;;;;;;;;;;10.10;90.80;;;;;;5127890;28;19956;-77
2021/12/04 14:33:26;;;;;;;;;;;10.10;90.80;;;;;;5131123;28;19907;-76
2021/12/04 14:35:53;;;;;;;;;;;10.10;90.80;;;;;;5131933;28;19907;-77
2021/12/04 14:38:24;;;;;;;;;;;10.00;90.80;;;;;;5132194;28;19915;-77
2021/12/04 14:41:00;;;;;;;;;;;10.10;90.80;;;;;;5127048;28;20182;-77
2021/12/04 14:43:28;;;;;;;;;;;10.10;90.80;;;;;;5128338;28;19918;-77
2021/12/04 14:45:56;;;;;;;;;;;10.10;90.80;;;;;;5130095;28;19963;-77
2021/12/04 14:48:28;;;;;;;;;;;10.10;90.80;;;;;;5132299;27;19938;-76
2021/12/04 14:50:58;;;;;;;;;;;10.10;90.80;;;;;;5133843;27;19907;-76
2021/12/04 14:53:24;;;;;;;;;;;10.10;90.80;;;;;;5134215;27;19913;-77
2021/12/04 14:55:50;;;;;;;;;;;10.10;90.80;;;;;;5135148;27;20014;-76
2021/12/04 14:58:17;;;;;;;;;;;10.20;90.80;;;;;;5135188;27;20366;-76
2021/12/04 15:00:46;;;;;;;;;;;10.20;90.80;;;;;;5131102;27;19929;-76
2021/12/04 15:03:15;;;;;;;;;;;10.20;91.10;;;;;;5130863;27;19911;-76
2021/12/04 15:05:47;;;;;;;;;;;10.20;90.80;;;;;;5124205;27;19912;-76
2021/12/04 15:08:16;;;;;;;;;;;10.20;90.80;;;;;;5134490;27;19970;-78
2021/12/04 15:10:43;;;;;;;;;;;10.20;90.80;;;;;;5134701;27;19907;-75
2021/12/04 15:13:17;;;;;;;;;;;10.20;90.80;;;;;;5133828;27;19914;-75
2021/12/04 15:15:43;;;;;;;;;;;10.20;90.80;;;;;;5134771;27;19907;-81
2021/12/04 15:18:12;;;;;;;;;;;10.20;90.80;;;;;;5134451;27;19907;-72
2021/12/04 15:20:42;;;;;;;;;;;10.20;90.80;;;;;;5132501;27;19990;-80
2021/12/04 15:23:08;;;;;;;;;;;10.30;90.80;;;;;;5135412;27;19933;-83
2021/12/04 15:25:35;;;;;;;;;;;10.30;90.80;;;;;;5132205;27;19918;-85
2021/12/04 15:28:12;;;;;;;;;;;10.30;90.70;;;;;;5134864;27;19915;-88
2021/12/04 15:30:42;;;;;;;;;;;10.30;90.70;;;;;;5133608;27;19907;-82
2021/12/04 15:33:07;;;;;;;;;;;10.30;90.70;;;;;;5104449;27;20361;-81
2021/12/04 15:35:40;;;;;;;;;;;10.30;90.70;;;;;;5132405;27;19914;-79
2021/12/04 15:38:10;;;;;;;;;;;10.30;90.70;;;;;;5132358;27;20050;-80
2021/12/04 15:43:29;;;;;;;;;;;10.30;90.70;;;;;;5131256;27;20362;-87
2021/12/04 15:46:14;;;;;;;;;;;10.40;90.70;;;;;;5131832;27;19930;-80
2021/12/04 15:54:14;;;;;;;;;;;10.30;90.60;;;;;;5133035;27;19911;-82
2021/12/04 15:56:45;;;;;;;;;;;10.30;90.50;;;;;;5135132;27;19914;-81
2021/12/04 15:59:16;;;;;;;;;;;10.30;90.50;;;;;;5122658;27;20279;-78
2021/12/04 16:01:42;;;;;;;;;;;10.20;90.50;;;;;;5123742;27;20316;-75
2021/12/04 16:04:26;;;;;;;;;;;10.30;90.50;;;;;;5131152;27;19911;-78
2021/12/04 16:06:52;;;;;;;;;;;10.30;90.50;;;;;;5131703;27;19932;-73
2021/12/04 16:09:26;;;;;;;;;;;10.30;90.50;;;;;;5132706;27;19911;-74
2021/12/04 16:11:57;;;;;;;;;;;10.20;90.50;;;;;;5128572;27;19922;-75
2021/12/04 16:14:28;;;;;;;;;;;10.20;90.60;;;;;;5122077;27;19907;-79
2021/12/04 16:16:53;;;;;;;;;;;10.30;90.60;;;;;;5128668;27;19908;-78
2021/12/04 16:19:19;;;;;;;;;;;10.20;90.60;;;;;;5130372;27;19952;-79
2021/12/04 16:21:44;;;;;;;;;;;10.30;90.60;;;;;;5123196;27;19989;-79
2021/12/04 16:24:11;;;;;;;;;;;10.30;90.50;;;;;;5129521;27;20443;-80
2021/12/04 16:26:38;;;;;;;;;;;10.20;90.50;;;;;;5127113;27;19928;-84
2021/12/04 16:29:08;;;;;;;;;;;10.30;90.50;;;;;;5131623;27;20426;-81
2021/12/04 16:40:02;;;;;;;;;;;10.20;90.50;;;;;;5112809;27;19912;-82
2021/12/04 16:42:28;;;;;;;;;;;10.20;90.50;;;;;;5126828;27;19968;-79
2021/12/04 16:44:54;;;;;;;;;;;10.30;90.50;;;;;;5131334;27;19915;-79
2021/12/04 16:47:21;;;;;;;;;;;10.30;90.50;;;;;;5134056;27;19921;-78
2021/12/04 16:49:48;;;;;;;;;;;10.30;90.40;;;;;;5133512;27;19915;-78
2021/12/04 16:59:53;;;;;;;;;;;10.30;90.40;;;;;;5113951;27;20311;-82
2021/12/04 17:02:19;;;;;;;;;;;10.30;90.40;;;;;;5132314;27;19961;-81
2021/12/04 17:04:46;;;;;;;;;;;10.20;90.30;;;;;;5123591;27;19970;-80
2021/12/04 17:07:11;;;;;;;;;;;10.30;90.40;;;;;;5128790;27;20269;-79
2021/12/04 17:09:37;;;;;;;;;;;10.20;90.40;;;;;;5132976;27;19911;-80
2021/12/04 17:12:03;;;;;;;;;;;10.20;90.30;;;;;;5131652;27;19911;-81
2021/12/04 17:14:30;;;;;;;;;;;10.20;90.40;;;;;;5133408;27;19907;-81
2021/12/04 17:16:58;;;;;;;;;;;10.20;90.40;;;;;;5131728;27;19907;-79
2021/12/04 17:19:24;;;;;;;;;;;10.20;90.40;;;;;;5129683;27;20376;-84
2021/12/04 17:21:49;;;;;;;;;;;10.30;90.70;;;;;;5129759;27;19907;-83
2021/12/04 17:24:17;;;;;;;;;;;10.20;90.30;;;;;;5127791;27;20039;-83
2021/12/04 17:26:43;;;;;;;;;;;10.20;90.30;;;;;;5131495;27;19921;-82
2021/12/04 17:29:11;;;;;;;;;;;10.20;90.30;;;;;;5129574;27;20011;-83
2021/12/04 17:31:38;;;;;;;;;;;10.20;90.30;;;;;;5131687;27;19911;-83
2021/12/04 17:34:03;;;;;;;;;;;10.20;90.40;;;;;;5131488;27;19911;-82
2021/12/04 17:36:30;;;;;;;;;;;10.20;90.30;;;;;;5130684;27;19943;-82
2021/12/04 17:38:56;;;;;;;;;;;10.20;90.40;;;;;;5130624;27;19930;-82
2021/12/04 17:41:23;;;;;;;;;;;10.20;90.30;;;;;;5130828;27;20366;-81
2021/12/04 17:43:51;;;;;;;;;;;10.20;90.30;;;;;;5116868;27;19911;-81
2021/12/04 17:46:18;;;;;;;;;;;10.20;90.30;;;;;;5126262;27;19919;-80
2021/12/04 17:48:45;;;;;;;;;;;10.20;90.30;;;;;;5124728;27;19929;-77